<?xml version="1.0" encoding="UTF-8" standalone="no" ?>
<gpx xmlns="http://www.topografix.com/GPX/1/1" xmlns:xsi="http://www.w3.org/2001/XMLSchema-instance" xsi:schemaLocation="http://www.topografix.com/GPX/1/1 http://www.topografix.com/GPX/1/1/gpx.xsd" version="1.1" creator="VisuGPX - https://www.visugpx.com">
  <metadata>
    <name>2021-01-11 09-27-36 Petit Som</name>
  </metadata>
  <trk>
    <name><![CDATA[2021-01-11 09-27-36 Som Petit]]></name>
    <trkseg>
      <trkpt lat="45.41142" lon="5.83627">
        <ele>948</ele>
        <time>2021-01-11T08:31:55Z</time>
      </trkpt>
      <trkpt lat="45.41122" lon="5.83629">
        <ele>947</ele>
        <time>2021-01-11T08:32:15Z</time>
      </trkpt>
      <trkpt lat="45.41104" lon="5.83626">
        <ele>952</ele>
        <time>2021-01-11T08:32:28Z</time>
      </trkpt>
      <trkpt lat="45.41083" lon="5.83609">
        <ele>944</ele>
        <time>2021-01-11T08:33:22Z</time>
      </trkpt>
      <trkpt lat="45.41075" lon="5.83582">
        <ele>949</ele>
        <time>2021-01-11T08:33:26Z</time>
      </trkpt>
      <trkpt lat="45.41078" lon="5.83557">
        <ele>965</ele>
        <time>2021-01-11T08:33:37Z</time>
      </trkpt>
      <trkpt lat="45.41071" lon="5.83531">
        <ele>966</ele>
        <time>2021-01-11T08:33:53Z</time>
      </trkpt>
      <trkpt lat="45.41065" lon="5.83505">
        <ele>959</ele>
        <time>2021-01-11T08:34:11Z</time>
      </trkpt>
      <trkpt lat="45.41057" lon="5.83476">
        <ele>970</ele>
        <time>2021-01-11T08:34:28Z</time>
      </trkpt>
      <trkpt lat="45.41048" lon="5.83454">
        <ele>972</ele>
        <time>2021-01-11T08:35:04Z</time>
      </trkpt>
      <trkpt lat="45.41037" lon="5.83434">
        <ele>975</ele>
        <time>2021-01-11T08:35:23Z</time>
      </trkpt>
      <trkpt lat="45.41023" lon="5.83416">
        <ele>977</ele>
        <time>2021-01-11T08:35:43Z</time>
      </trkpt>
      <trkpt lat="45.4101" lon="5.83398">
        <ele>976</ele>
        <time>2021-01-11T08:36:14Z</time>
      </trkpt>
      <trkpt lat="45.41015" lon="5.83372">
        <ele>970</ele>
        <time>2021-01-11T08:36:53Z</time>
      </trkpt>
      <trkpt lat="45.41015" lon="5.83346">
        <ele>971</ele>
        <time>2021-01-11T08:37:25Z</time>
      </trkpt>
      <trkpt lat="45.41007" lon="5.83322">
        <ele>978</ele>
        <time>2021-01-11T08:37:37Z</time>
      </trkpt>
      <trkpt lat="45.40992" lon="5.83293">
        <ele>986</ele>
        <time>2021-01-11T08:38:43Z</time>
      </trkpt>
      <trkpt lat="45.40967" lon="5.83289">
        <ele>998</ele>
        <time>2021-01-11T08:38:46Z</time>
      </trkpt>
      <trkpt lat="45.40949" lon="5.83272">
        <ele>995</ele>
        <time>2021-01-11T08:38:54Z</time>
      </trkpt>
      <trkpt lat="45.40952" lon="5.83247">
        <ele>989</ele>
        <time>2021-01-11T08:39:53Z</time>
      </trkpt>
      <trkpt lat="45.40951" lon="5.83221">
        <ele>987</ele>
        <time>2021-01-11T08:44:46Z</time>
      </trkpt>
      <trkpt lat="45.40953" lon="5.83194">
        <ele>991</ele>
        <time>2021-01-11T08:45:23Z</time>
      </trkpt>
      <trkpt lat="45.40948" lon="5.8317">
        <ele>1001</ele>
        <time>2021-01-11T08:45:40Z</time>
      </trkpt>
      <trkpt lat="45.40939" lon="5.83146">
        <ele>1015</ele>
        <time>2021-01-11T08:46:07Z</time>
      </trkpt>
      <trkpt lat="45.40928" lon="5.83124">
        <ele>1021</ele>
        <time>2021-01-11T08:46:46Z</time>
      </trkpt>
      <trkpt lat="45.40924" lon="5.83099">
        <ele>1027</ele>
        <time>2021-01-11T08:47:02Z</time>
      </trkpt>
      <trkpt lat="45.40919" lon="5.83073">
        <ele>1033</ele>
        <time>2021-01-11T08:47:19Z</time>
      </trkpt>
      <trkpt lat="45.40905" lon="5.83055">
        <ele>1033</ele>
        <time>2021-01-11T08:47:38Z</time>
      </trkpt>
      <trkpt lat="45.40878" lon="5.83005">
        <ele>1056</ele>
        <time>2021-01-11T08:48:11Z</time>
      </trkpt>
      <trkpt lat="45.40859" lon="5.82996">
        <ele>1058</ele>
        <time>2021-01-11T08:48:31Z</time>
      </trkpt>
      <trkpt lat="45.40843" lon="5.82984">
        <ele>1051</ele>
        <time>2021-01-11T08:49:29Z</time>
      </trkpt>
      <trkpt lat="45.40826" lon="5.82973">
        <ele>1045</ele>
        <time>2021-01-11T08:49:43Z</time>
      </trkpt>
      <trkpt lat="45.40807" lon="5.82966">
        <ele>1053</ele>
        <time>2021-01-11T08:49:53Z</time>
      </trkpt>
      <trkpt lat="45.40799" lon="5.82941">
        <ele>1056</ele>
        <time>2021-01-11T08:50:39Z</time>
      </trkpt>
      <trkpt lat="45.40781" lon="5.82932">
        <ele>1058</ele>
        <time>2021-01-11T08:50:53Z</time>
      </trkpt>
      <trkpt lat="45.40766" lon="5.82916">
        <ele>1065</ele>
        <time>2021-01-11T08:51:09Z</time>
      </trkpt>
      <trkpt lat="45.40751" lon="5.82901">
        <ele>1070</ele>
        <time>2021-01-11T08:51:29Z</time>
      </trkpt>
      <trkpt lat="45.40676" lon="5.82858">
        <ele>1031</ele>
        <time>2021-01-11T08:56:11Z</time>
      </trkpt>
      <trkpt lat="45.40657" lon="5.82857">
        <ele>1046</ele>
        <time>2021-01-11T08:56:58Z</time>
      </trkpt>
      <trkpt lat="45.40638" lon="5.82854">
        <ele>1044</ele>
        <time>2021-01-11T08:57:16Z</time>
      </trkpt>
      <trkpt lat="45.40617" lon="5.82857">
        <ele>1044</ele>
        <time>2021-01-11T08:57:36Z</time>
      </trkpt>
      <trkpt lat="45.40558" lon="5.82938">
        <ele>1064</ele>
        <time>2021-01-11T08:58:13Z</time>
      </trkpt>
      <trkpt lat="45.40571" lon="5.82904">
        <ele>1074</ele>
        <time>2021-01-11T08:58:19Z</time>
      </trkpt>
      <trkpt lat="45.40552" lon="5.82901">
        <ele>1094</ele>
        <time>2021-01-11T08:59:47Z</time>
      </trkpt>
      <trkpt lat="45.40533" lon="5.82891">
        <ele>1094</ele>
        <time>2021-01-11T09:01:30Z</time>
      </trkpt>
      <trkpt lat="45.40515" lon="5.82886">
        <ele>1082</ele>
        <time>2021-01-11T09:01:42Z</time>
      </trkpt>
      <trkpt lat="45.4052" lon="5.82861">
        <ele>1091</ele>
        <time>2021-01-11T09:02:14Z</time>
      </trkpt>
      <trkpt lat="45.40502" lon="5.8277">
        <ele>1112</ele>
        <time>2021-01-11T09:04:04Z</time>
      </trkpt>
      <trkpt lat="45.40501" lon="5.82743">
        <ele>1136</ele>
        <time>2021-01-11T09:05:36Z</time>
      </trkpt>
      <trkpt lat="45.40484" lon="5.82732">
        <ele>1136</ele>
        <time>2021-01-11T09:05:47Z</time>
      </trkpt>
      <trkpt lat="45.40473" lon="5.82711">
        <ele>1129</ele>
        <time>2021-01-11T09:06:32Z</time>
      </trkpt>
      <trkpt lat="45.4047" lon="5.82686">
        <ele>1134</ele>
        <time>2021-01-11T09:06:49Z</time>
      </trkpt>
      <trkpt lat="45.40463" lon="5.8266">
        <ele>1145</ele>
        <time>2021-01-11T09:07:12Z</time>
      </trkpt>
      <trkpt lat="45.40448" lon="5.82647">
        <ele>1142</ele>
        <time>2021-01-11T09:07:38Z</time>
      </trkpt>
      <trkpt lat="45.40397" lon="5.82609">
        <ele>1112</ele>
        <time>2021-01-11T09:08:16Z</time>
      </trkpt>
      <trkpt lat="45.40385" lon="5.82588">
        <ele>1153</ele>
        <time>2021-01-11T09:09:42Z</time>
      </trkpt>
      <trkpt lat="45.40367" lon="5.82582">
        <ele>1163</ele>
        <time>2021-01-11T09:10:34Z</time>
      </trkpt>
      <trkpt lat="45.40349" lon="5.82575">
        <ele>1168</ele>
        <time>2021-01-11T09:10:55Z</time>
      </trkpt>
      <trkpt lat="45.40332" lon="5.82563">
        <ele>1178</ele>
        <time>2021-01-11T09:11:43Z</time>
      </trkpt>
      <trkpt lat="45.4032" lon="5.82543">
        <ele>1183</ele>
        <time>2021-01-11T09:12:15Z</time>
      </trkpt>
      <trkpt lat="45.40309" lon="5.82516">
        <ele>1210</ele>
        <time>2021-01-11T09:13:40Z</time>
      </trkpt>
      <trkpt lat="45.40291" lon="5.82497">
        <ele>1201</ele>
        <time>2021-01-11T09:13:41Z</time>
      </trkpt>
      <trkpt lat="45.40275" lon="5.82486">
        <ele>1199</ele>
        <time>2021-01-11T09:13:45Z</time>
      </trkpt>
      <trkpt lat="45.40269" lon="5.82461">
        <ele>1203</ele>
        <time>2021-01-11T09:18:45Z</time>
      </trkpt>
      <trkpt lat="45.40251" lon="5.82453">
        <ele>1191</ele>
        <time>2021-01-11T09:18:51Z</time>
      </trkpt>
      <trkpt lat="45.40235" lon="5.8244">
        <ele>1198</ele>
        <time>2021-01-11T09:18:59Z</time>
      </trkpt>
      <trkpt lat="45.40219" lon="5.82425">
        <ele>1202</ele>
        <time>2021-01-11T09:19:10Z</time>
      </trkpt>
      <trkpt lat="45.40204" lon="5.8241">
        <ele>1191</ele>
        <time>2021-01-11T09:19:40Z</time>
      </trkpt>
      <trkpt lat="45.40189" lon="5.82394">
        <ele>1186</ele>
        <time>2021-01-11T09:20:15Z</time>
      </trkpt>
      <trkpt lat="45.40174" lon="5.82379">
        <ele>1192</ele>
        <time>2021-01-11T09:20:34Z</time>
      </trkpt>
      <trkpt lat="45.40159" lon="5.82361">
        <ele>1197</ele>
        <time>2021-01-11T09:20:57Z</time>
      </trkpt>
      <trkpt lat="45.40144" lon="5.82345">
        <ele>1205</ele>
        <time>2021-01-11T09:21:18Z</time>
      </trkpt>
      <trkpt lat="45.40129" lon="5.82331">
        <ele>1203</ele>
        <time>2021-01-11T09:21:41Z</time>
      </trkpt>
      <trkpt lat="45.40122" lon="5.82304">
        <ele>1214</ele>
        <time>2021-01-11T09:22:06Z</time>
      </trkpt>
      <trkpt lat="45.40049" lon="5.82224">
        <ele>1216</ele>
        <time>2021-01-11T09:23:43Z</time>
      </trkpt>
      <trkpt lat="45.39987" lon="5.82225">
        <ele>1243</ele>
        <time>2021-01-11T09:25:46Z</time>
      </trkpt>
      <trkpt lat="45.39984" lon="5.82199">
        <ele>1241</ele>
        <time>2021-01-11T09:26:45Z</time>
      </trkpt>
      <trkpt lat="45.39958" lon="5.82188">
        <ele>1225</ele>
        <time>2021-01-11T09:28:25Z</time>
      </trkpt>
      <trkpt lat="45.3994" lon="5.8219">
        <ele>1220</ele>
        <time>2021-01-11T09:28:59Z</time>
      </trkpt>
      <trkpt lat="45.39923" lon="5.82177">
        <ele>1209</ele>
        <time>2021-01-11T09:29:23Z</time>
      </trkpt>
      <trkpt lat="45.39906" lon="5.82171">
        <ele>1209</ele>
        <time>2021-01-11T09:29:46Z</time>
      </trkpt>
      <trkpt lat="45.3989" lon="5.82155">
        <ele>1219</ele>
        <time>2021-01-11T09:30:35Z</time>
      </trkpt>
      <trkpt lat="45.39873" lon="5.82148">
        <ele>1230</ele>
        <time>2021-01-11T09:31:28Z</time>
      </trkpt>
      <trkpt lat="45.39858" lon="5.82133">
        <ele>1237</ele>
        <time>2021-01-11T09:32:16Z</time>
      </trkpt>
      <trkpt lat="45.39839" lon="5.82114">
        <ele>1241</ele>
        <time>2021-01-11T09:33:55Z</time>
      </trkpt>
      <trkpt lat="45.39823" lon="5.82097">
        <ele>1231</ele>
        <time>2021-01-11T09:34:03Z</time>
      </trkpt>
      <trkpt lat="45.39805" lon="5.82088">
        <ele>1238</ele>
        <time>2021-01-11T09:36:15Z</time>
      </trkpt>
      <trkpt lat="45.39786" lon="5.82079">
        <ele>1228</ele>
        <time>2021-01-11T09:36:36Z</time>
      </trkpt>
      <trkpt lat="45.3977" lon="5.82091">
        <ele>1220</ele>
        <time>2021-01-11T09:37:11Z</time>
      </trkpt>
      <trkpt lat="45.39712" lon="5.81985">
        <ele>1236</ele>
        <time>2021-01-11T09:38:28Z</time>
      </trkpt>
      <trkpt lat="45.39694" lon="5.81978">
        <ele>1217</ele>
        <time>2021-01-11T09:39:32Z</time>
      </trkpt>
      <trkpt lat="45.39679" lon="5.81966">
        <ele>1219</ele>
        <time>2021-01-11T09:39:46Z</time>
      </trkpt>
      <trkpt lat="45.39664" lon="5.8195">
        <ele>1225</ele>
        <time>2021-01-11T09:40:08Z</time>
      </trkpt>
      <trkpt lat="45.39645" lon="5.81955">
        <ele>1220</ele>
        <time>2021-01-11T09:41:05Z</time>
      </trkpt>
      <trkpt lat="45.39627" lon="5.81951">
        <ele>1219</ele>
        <time>2021-01-11T09:42:17Z</time>
      </trkpt>
      <trkpt lat="45.39608" lon="5.81953">
        <ele>1229</ele>
        <time>2021-01-11T09:42:37Z</time>
      </trkpt>
      <trkpt lat="45.39554" lon="5.81945">
        <ele>1261</ele>
        <time>2021-01-11T09:43:16Z</time>
      </trkpt>
      <trkpt lat="45.39566" lon="5.81923">
        <ele>1268</ele>
        <time>2021-01-11T09:44:06Z</time>
      </trkpt>
      <trkpt lat="45.39551" lon="5.81909">
        <ele>1219</ele>
        <time>2021-01-11T09:45:13Z</time>
      </trkpt>
      <trkpt lat="45.39533" lon="5.81908">
        <ele>1251</ele>
        <time>2021-01-11T09:47:19Z</time>
      </trkpt>
      <trkpt lat="45.39513" lon="5.81905">
        <ele>1249</ele>
        <time>2021-01-11T09:48:21Z</time>
      </trkpt>
      <trkpt lat="45.39496" lon="5.81916">
        <ele>1283</ele>
        <time>2021-01-11T09:48:46Z</time>
      </trkpt>
      <trkpt lat="45.39478" lon="5.81911">
        <ele>1284</ele>
        <time>2021-01-11T09:50:45Z</time>
      </trkpt>
      <trkpt lat="45.3946" lon="5.81909">
        <ele>1297</ele>
        <time>2021-01-11T09:51:27Z</time>
      </trkpt>
      <trkpt lat="45.3944" lon="5.81906">
        <ele>1262</ele>
        <time>2021-01-11T09:53:24Z</time>
      </trkpt>
      <trkpt lat="45.39423" lon="5.81896">
        <ele>1264</ele>
        <time>2021-01-11T09:53:51Z</time>
      </trkpt>
      <trkpt lat="45.39406" lon="5.81886">
        <ele>1291</ele>
        <time>2021-01-11T09:54:52Z</time>
      </trkpt>
      <trkpt lat="45.39387" lon="5.81881">
        <ele>1293</ele>
        <time>2021-01-11T09:55:16Z</time>
      </trkpt>
      <trkpt lat="45.39369" lon="5.81875">
        <ele>1316</ele>
        <time>2021-01-11T09:56:04Z</time>
      </trkpt>
      <trkpt lat="45.3935" lon="5.8188">
        <ele>1314</ele>
        <time>2021-01-11T09:56:26Z</time>
      </trkpt>
      <trkpt lat="45.39332" lon="5.81885">
        <ele>1323</ele>
        <time>2021-01-11T09:56:43Z</time>
      </trkpt>
      <trkpt lat="45.39315" lon="5.81877">
        <ele>1293</ele>
        <time>2021-01-11T09:57:05Z</time>
      </trkpt>
      <trkpt lat="45.39296" lon="5.81872">
        <ele>1309</ele>
        <time>2021-01-11T09:57:32Z</time>
      </trkpt>
      <trkpt lat="45.3928" lon="5.81943">
        <ele>1285</ele>
        <time>2021-01-11T09:59:13Z</time>
      </trkpt>
      <trkpt lat="45.393" lon="5.81942">
        <ele>1293</ele>
        <time>2021-01-11T10:03:46Z</time>
      </trkpt>
      <trkpt lat="45.39254" lon="5.81888">
        <ele>1331</ele>
        <time>2021-01-11T10:04:22Z</time>
      </trkpt>
      <trkpt lat="45.39235" lon="5.81884">
        <ele>1360</ele>
        <time>2021-01-11T10:05:03Z</time>
      </trkpt>
      <trkpt lat="45.39217" lon="5.81884">
        <ele>1360</ele>
        <time>2021-01-11T10:06:11Z</time>
      </trkpt>
      <trkpt lat="45.39198" lon="5.81889">
        <ele>1361</ele>
        <time>2021-01-11T10:07:07Z</time>
      </trkpt>
      <trkpt lat="45.3918" lon="5.8189">
        <ele>1362</ele>
        <time>2021-01-11T10:07:52Z</time>
      </trkpt>
      <trkpt lat="45.39128" lon="5.81826">
        <ele>1353</ele>
        <time>2021-01-11T10:09:15Z</time>
      </trkpt>
      <trkpt lat="45.39114" lon="5.81845">
        <ele>1381</ele>
        <time>2021-01-11T10:09:43Z</time>
      </trkpt>
      <trkpt lat="45.39094" lon="5.81857">
        <ele>1389</ele>
        <time>2021-01-11T10:10:34Z</time>
      </trkpt>
      <trkpt lat="45.39076" lon="5.81864">
        <ele>1385</ele>
        <time>2021-01-11T10:10:42Z</time>
      </trkpt>
      <trkpt lat="45.39054" lon="5.81866">
        <ele>1399</ele>
        <time>2021-01-11T10:11:15Z</time>
      </trkpt>
      <trkpt lat="45.39035" lon="5.81871">
        <ele>1418</ele>
        <time>2021-01-11T10:13:43Z</time>
      </trkpt>
      <trkpt lat="45.39009" lon="5.81882">
        <ele>1434</ele>
        <time>2021-01-11T10:14:21Z</time>
      </trkpt>
      <trkpt lat="45.38986" lon="5.81888">
        <ele>1435</ele>
        <time>2021-01-11T10:14:23Z</time>
      </trkpt>
      <trkpt lat="45.38966" lon="5.81895">
        <ele>1440</ele>
        <time>2021-01-11T10:14:29Z</time>
      </trkpt>
      <trkpt lat="45.38949" lon="5.81886">
        <ele>1462</ele>
        <time>2021-01-11T10:15:15Z</time>
      </trkpt>
      <trkpt lat="45.38928" lon="5.81891">
        <ele>1484</ele>
        <time>2021-01-11T10:16:43Z</time>
      </trkpt>
      <trkpt lat="45.3891" lon="5.81883">
        <ele>1503</ele>
        <time>2021-01-11T10:18:49Z</time>
      </trkpt>
      <trkpt lat="45.38892" lon="5.81876">
        <ele>1519</ele>
        <time>2021-01-11T10:20:00Z</time>
      </trkpt>
      <trkpt lat="45.38876" lon="5.81861">
        <ele>1526</ele>
        <time>2021-01-11T10:21:07Z</time>
      </trkpt>
      <trkpt lat="45.38871" lon="5.81836">
        <ele>1535</ele>
        <time>2021-01-11T10:22:03Z</time>
      </trkpt>
      <trkpt lat="45.38863" lon="5.81813">
        <ele>1537</ele>
        <time>2021-01-11T10:22:28Z</time>
      </trkpt>
      <trkpt lat="45.3885" lon="5.81793">
        <ele>1543</ele>
        <time>2021-01-11T10:22:45Z</time>
      </trkpt>
      <trkpt lat="45.38843" lon="5.81768">
        <ele>1550</ele>
        <time>2021-01-11T10:23:11Z</time>
      </trkpt>
      <trkpt lat="45.38827" lon="5.81753">
        <ele>1549</ele>
        <time>2021-01-11T10:23:38Z</time>
      </trkpt>
      <trkpt lat="45.38809" lon="5.81741">
        <ele>1552</ele>
        <time>2021-01-11T10:23:55Z</time>
      </trkpt>
      <trkpt lat="45.38797" lon="5.81721">
        <ele>1564</ele>
        <time>2021-01-11T10:24:07Z</time>
      </trkpt>
      <trkpt lat="45.38785" lon="5.81698">
        <ele>1573</ele>
        <time>2021-01-11T10:25:34Z</time>
      </trkpt>
      <trkpt lat="45.38769" lon="5.81683">
        <ele>1575</ele>
        <time>2021-01-11T10:25:45Z</time>
      </trkpt>
      <trkpt lat="45.38719" lon="5.81619">
        <ele>1562</ele>
        <time>2021-01-11T10:26:50Z</time>
      </trkpt>
      <trkpt lat="45.38705" lon="5.81602">
        <ele>1574</ele>
        <time>2021-01-11T10:27:20Z</time>
      </trkpt>
      <trkpt lat="45.38688" lon="5.81586">
        <ele>1586</ele>
        <time>2021-01-11T10:27:40Z</time>
      </trkpt>
      <trkpt lat="45.38673" lon="5.8157">
        <ele>1583</ele>
        <time>2021-01-11T10:28:13Z</time>
      </trkpt>
      <trkpt lat="45.38659" lon="5.81555">
        <ele>1583</ele>
        <time>2021-01-11T10:28:30Z</time>
      </trkpt>
      <trkpt lat="45.38641" lon="5.81545">
        <ele>1586</ele>
        <time>2021-01-11T10:28:49Z</time>
      </trkpt>
      <trkpt lat="45.38623" lon="5.81537">
        <ele>1589</ele>
        <time>2021-01-11T10:29:24Z</time>
      </trkpt>
      <trkpt lat="45.38606" lon="5.81543">
        <ele>1585</ele>
        <time>2021-01-11T10:30:06Z</time>
      </trkpt>
      <trkpt lat="45.38586" lon="5.81537">
        <ele>1552</ele>
        <time>2021-01-11T10:30:28Z</time>
      </trkpt>
      <trkpt lat="45.38567" lon="5.81528">
        <ele>1595</ele>
        <time>2021-01-11T10:30:50Z</time>
      </trkpt>
      <trkpt lat="45.38551" lon="5.81517">
        <ele>1607</ele>
        <time>2021-01-11T10:31:49Z</time>
      </trkpt>
      <trkpt lat="45.38556" lon="5.81492">
        <ele>1618</ele>
        <time>2021-01-11T10:32:27Z</time>
      </trkpt>
      <trkpt lat="45.3854" lon="5.81478">
        <ele>1618</ele>
        <time>2021-01-11T10:32:51Z</time>
      </trkpt>
      <trkpt lat="45.38522" lon="5.8147">
        <ele>1624</ele>
        <time>2021-01-11T10:33:15Z</time>
      </trkpt>
      <trkpt lat="45.38507" lon="5.81485">
        <ele>1634</ele>
        <time>2021-01-11T10:34:32Z</time>
      </trkpt>
      <trkpt lat="45.38491" lon="5.81473">
        <ele>1634</ele>
        <time>2021-01-11T10:35:02Z</time>
      </trkpt>
      <trkpt lat="45.38482" lon="5.81449">
        <ele>1637</ele>
        <time>2021-01-11T10:35:22Z</time>
      </trkpt>
      <trkpt lat="45.38467" lon="5.81432">
        <ele>1635</ele>
        <time>2021-01-11T10:35:45Z</time>
      </trkpt>
      <trkpt lat="45.38439" lon="5.81397">
        <ele>1657</ele>
        <time>2021-01-11T10:36:36Z</time>
      </trkpt>
      <trkpt lat="45.38444" lon="5.81372">
        <ele>1637</ele>
        <time>2021-01-11T10:40:13Z</time>
      </trkpt>
      <trkpt lat="45.38443" lon="5.81344">
        <ele>1631</ele>
        <time>2021-01-11T10:40:38Z</time>
      </trkpt>
      <trkpt lat="45.38435" lon="5.81319">
        <ele>1634</ele>
        <time>2021-01-11T10:41:04Z</time>
      </trkpt>
      <trkpt lat="45.38427" lon="5.81295">
        <ele>1636</ele>
        <time>2021-01-11T10:43:27Z</time>
      </trkpt>
      <trkpt lat="45.38424" lon="5.81268">
        <ele>1639</ele>
        <time>2021-01-11T10:44:27Z</time>
      </trkpt>
      <trkpt lat="45.38429" lon="5.81242">
        <ele>1654</ele>
        <time>2021-01-11T10:45:41Z</time>
      </trkpt>
      <trkpt lat="45.38436" lon="5.81219">
        <ele>1652</ele>
        <time>2021-01-11T10:46:41Z</time>
      </trkpt>
      <trkpt lat="45.38455" lon="5.8122">
        <ele>1671</ele>
        <time>2021-01-11T10:47:10Z</time>
      </trkpt>
      <trkpt lat="45.38473" lon="5.81218">
        <ele>1677</ele>
        <time>2021-01-11T10:47:41Z</time>
      </trkpt>
      <trkpt lat="45.38491" lon="5.81211">
        <ele>1667</ele>
        <time>2021-01-11T10:48:21Z</time>
      </trkpt>
      <trkpt lat="45.3851" lon="5.81208">
        <ele>1679</ele>
        <time>2021-01-11T10:48:45Z</time>
      </trkpt>
      <trkpt lat="45.38528" lon="5.8121">
        <ele>1683</ele>
        <time>2021-01-11T10:48:53Z</time>
      </trkpt>
      <trkpt lat="45.3854" lon="5.8119">
        <ele>1679</ele>
        <time>2021-01-11T10:49:35Z</time>
      </trkpt>
      <trkpt lat="45.38579" lon="5.8118">
        <ele>1685</ele>
        <time>2021-01-11T10:50:32Z</time>
      </trkpt>
      <trkpt lat="45.38566" lon="5.81156">
        <ele>1673</ele>
        <time>2021-01-11T10:50:47Z</time>
      </trkpt>
      <trkpt lat="45.38574" lon="5.81133">
        <ele>1692</ele>
        <time>2021-01-11T10:52:09Z</time>
      </trkpt>
      <trkpt lat="45.38589" lon="5.81117">
        <ele>1697</ele>
        <time>2021-01-11T10:52:49Z</time>
      </trkpt>
      <trkpt lat="45.38604" lon="5.81101">
        <ele>1720</ele>
        <time>2021-01-11T10:53:54Z</time>
      </trkpt>
      <trkpt lat="45.38612" lon="5.81078">
        <ele>1723</ele>
        <time>2021-01-11T10:54:30Z</time>
      </trkpt>
      <trkpt lat="45.38627" lon="5.81063">
        <ele>1738</ele>
        <time>2021-01-11T10:55:32Z</time>
      </trkpt>
      <trkpt lat="45.38639" lon="5.81043">
        <ele>1738</ele>
        <time>2021-01-11T10:56:41Z</time>
      </trkpt>
      <trkpt lat="45.38653" lon="5.81025">
        <ele>1734</ele>
        <time>2021-01-11T10:57:02Z</time>
      </trkpt>
      <trkpt lat="45.38664" lon="5.81004">
        <ele>1727</ele>
        <time>2021-01-11T10:57:25Z</time>
      </trkpt>
      <trkpt lat="45.38673" lon="5.80979">
        <ele>1725</ele>
        <time>2021-01-11T10:57:42Z</time>
      </trkpt>
      <trkpt lat="45.38686" lon="5.8096">
        <ele>1722</ele>
        <time>2021-01-11T10:58:00Z</time>
      </trkpt>
      <trkpt lat="45.38697" lon="5.80939">
        <ele>1713</ele>
        <time>2021-01-11T10:58:24Z</time>
      </trkpt>
      <trkpt lat="45.38705" lon="5.80915">
        <ele>1708</ele>
        <time>2021-01-11T10:58:42Z</time>
      </trkpt>
      <trkpt lat="45.38712" lon="5.80889">
        <ele>1706</ele>
        <time>2021-01-11T10:58:59Z</time>
      </trkpt>
      <trkpt lat="45.38719" lon="5.80862">
        <ele>1705</ele>
        <time>2021-01-11T10:59:21Z</time>
      </trkpt>
      <trkpt lat="45.38718" lon="5.80835">
        <ele>1707</ele>
        <time>2021-01-11T10:59:44Z</time>
      </trkpt>
      <trkpt lat="45.38715" lon="5.80808">
        <ele>1708</ele>
        <time>2021-01-11T11:00:10Z</time>
      </trkpt>
      <trkpt lat="45.38712" lon="5.80782">
        <ele>1715</ele>
        <time>2021-01-11T11:01:01Z</time>
      </trkpt>
      <trkpt lat="45.38708" lon="5.80757">
        <ele>1718</ele>
        <time>2021-01-11T11:01:26Z</time>
      </trkpt>
      <trkpt lat="45.38703" lon="5.80732">
        <ele>1725</ele>
        <time>2021-01-11T11:02:01Z</time>
      </trkpt>
      <trkpt lat="45.38696" lon="5.80707">
        <ele>1734</ele>
        <time>2021-01-11T11:03:05Z</time>
      </trkpt>
      <trkpt lat="45.38706" lon="5.80685">
        <ele>1737</ele>
        <time>2021-01-11T11:03:53Z</time>
      </trkpt>
      <trkpt lat="45.38722" lon="5.80672">
        <ele>1744</ele>
        <time>2021-01-11T11:04:46Z</time>
      </trkpt>
      <trkpt lat="45.38736" lon="5.80655">
        <ele>1746</ele>
        <time>2021-01-11T11:05:26Z</time>
      </trkpt>
      <trkpt lat="45.38748" lon="5.80636">
        <ele>1754</ele>
        <time>2021-01-11T11:06:03Z</time>
      </trkpt>
      <trkpt lat="45.38752" lon="5.80609">
        <ele>1753</ele>
        <time>2021-01-11T11:06:27Z</time>
      </trkpt>
      <trkpt lat="45.38759" lon="5.80584">
        <ele>1758</ele>
        <time>2021-01-11T11:07:04Z</time>
      </trkpt>
      <trkpt lat="45.38763" lon="5.80559">
        <ele>1758</ele>
        <time>2021-01-11T11:07:34Z</time>
      </trkpt>
      <trkpt lat="45.38777" lon="5.80542">
        <ele>1760</ele>
        <time>2021-01-11T11:08:08Z</time>
      </trkpt>
      <trkpt lat="45.38787" lon="5.8052">
        <ele>1769</ele>
        <time>2021-01-11T11:09:23Z</time>
      </trkpt>
      <trkpt lat="45.38774" lon="5.80538">
        <ele>1767</ele>
        <time>2021-01-11T11:14:15Z</time>
      </trkpt>
      <trkpt lat="45.3876" lon="5.80555">
        <ele>1762</ele>
        <time>2021-01-11T11:16:23Z</time>
      </trkpt>
      <trkpt lat="45.38755" lon="5.80579">
        <ele>1763</ele>
        <time>2021-01-11T11:16:49Z</time>
      </trkpt>
      <trkpt lat="45.38748" lon="5.80603">
        <ele>1764</ele>
        <time>2021-01-11T11:17:06Z</time>
      </trkpt>
      <trkpt lat="45.3874" lon="5.80626">
        <ele>1759</ele>
        <time>2021-01-11T11:17:33Z</time>
      </trkpt>
      <trkpt lat="45.38735" lon="5.80652">
        <ele>1752</ele>
        <time>2021-01-11T11:19:41Z</time>
      </trkpt>
      <trkpt lat="45.38721" lon="5.8067">
        <ele>1741</ele>
        <time>2021-01-11T11:20:04Z</time>
      </trkpt>
      <trkpt lat="45.38707" lon="5.80686">
        <ele>1734</ele>
        <time>2021-01-11T11:20:22Z</time>
      </trkpt>
      <trkpt lat="45.38704" lon="5.80711">
        <ele>1729</ele>
        <time>2021-01-11T11:20:46Z</time>
      </trkpt>
      <trkpt lat="45.38712" lon="5.80735">
        <ele>1724</ele>
        <time>2021-01-11T11:21:15Z</time>
      </trkpt>
      <trkpt lat="45.38716" lon="5.8076">
        <ele>1720</ele>
        <time>2021-01-11T11:21:35Z</time>
      </trkpt>
      <trkpt lat="45.3872" lon="5.80786">
        <ele>1717</ele>
        <time>2021-01-11T11:21:55Z</time>
      </trkpt>
      <trkpt lat="45.38722" lon="5.80812">
        <ele>1714</ele>
        <time>2021-01-11T11:22:13Z</time>
      </trkpt>
      <trkpt lat="45.38722" lon="5.80839">
        <ele>1711</ele>
        <time>2021-01-11T11:22:30Z</time>
      </trkpt>
      <trkpt lat="45.38722" lon="5.80866">
        <ele>1709</ele>
        <time>2021-01-11T11:22:46Z</time>
      </trkpt>
      <trkpt lat="45.38716" lon="5.80892">
        <ele>1714</ele>
        <time>2021-01-11T11:23:32Z</time>
      </trkpt>
      <trkpt lat="45.38707" lon="5.80915">
        <ele>1714</ele>
        <time>2021-01-11T11:23:49Z</time>
      </trkpt>
      <trkpt lat="45.387" lon="5.80939">
        <ele>1718</ele>
        <time>2021-01-11T11:24:22Z</time>
      </trkpt>
      <trkpt lat="45.38689" lon="5.80959">
        <ele>1731</ele>
        <time>2021-01-11T11:24:54Z</time>
      </trkpt>
      <trkpt lat="45.38679" lon="5.80982">
        <ele>1736</ele>
        <time>2021-01-11T11:25:37Z</time>
      </trkpt>
      <trkpt lat="45.38668" lon="5.81003">
        <ele>1738</ele>
        <time>2021-01-11T11:26:18Z</time>
      </trkpt>
      <trkpt lat="45.38655" lon="5.81022">
        <ele>1744</ele>
        <time>2021-01-11T11:27:03Z</time>
      </trkpt>
      <trkpt lat="45.38643" lon="5.81044">
        <ele>1745</ele>
        <time>2021-01-11T11:27:49Z</time>
      </trkpt>
      <trkpt lat="45.38626" lon="5.81056">
        <ele>1742</ele>
        <time>2021-01-11T11:28:22Z</time>
      </trkpt>
      <trkpt lat="45.38608" lon="5.81058">
        <ele>1743</ele>
        <time>2021-01-11T11:28:45Z</time>
      </trkpt>
      <trkpt lat="45.38589" lon="5.81062">
        <ele>1747</ele>
        <time>2021-01-11T11:29:22Z</time>
      </trkpt>
      <trkpt lat="45.38572" lon="5.81073">
        <ele>1742</ele>
        <time>2021-01-11T11:30:22Z</time>
      </trkpt>
      <trkpt lat="45.38556" lon="5.81093">
        <ele>1721</ele>
        <time>2021-01-11T11:31:46Z</time>
      </trkpt>
      <trkpt lat="45.38541" lon="5.8111">
        <ele>1717</ele>
        <time>2021-01-11T12:20:35Z</time>
      </trkpt>
      <trkpt lat="45.38523" lon="5.81103">
        <ele>1712</ele>
        <time>2021-01-11T12:21:05Z</time>
      </trkpt>
      <trkpt lat="45.38511" lon="5.81123">
        <ele>1700</ele>
        <time>2021-01-11T12:21:40Z</time>
      </trkpt>
      <trkpt lat="45.38497" lon="5.81141">
        <ele>1695</ele>
        <time>2021-01-11T12:22:06Z</time>
      </trkpt>
      <trkpt lat="45.38485" lon="5.8116">
        <ele>1689</ele>
        <time>2021-01-11T12:22:29Z</time>
      </trkpt>
      <trkpt lat="45.3848" lon="5.81185">
        <ele>1686</ele>
        <time>2021-01-11T12:22:49Z</time>
      </trkpt>
      <trkpt lat="45.38477" lon="5.81212">
        <ele>1683</ele>
        <time>2021-01-11T12:23:09Z</time>
      </trkpt>
      <trkpt lat="45.38462" lon="5.81226">
        <ele>1675</ele>
        <time>2021-01-11T12:24:43Z</time>
      </trkpt>
      <trkpt lat="45.38444" lon="5.81235">
        <ele>1668</ele>
        <time>2021-01-11T12:25:05Z</time>
      </trkpt>
      <trkpt lat="45.38426" lon="5.81243">
        <ele>1670</ele>
        <time>2021-01-11T12:25:26Z</time>
      </trkpt>
      <trkpt lat="45.38407" lon="5.81252">
        <ele>1668</ele>
        <time>2021-01-11T12:25:50Z</time>
      </trkpt>
      <trkpt lat="45.3839" lon="5.81262">
        <ele>1663</ele>
        <time>2021-01-11T12:26:10Z</time>
      </trkpt>
      <trkpt lat="45.38371" lon="5.81261">
        <ele>1658</ele>
        <time>2021-01-11T12:26:34Z</time>
      </trkpt>
      <trkpt lat="45.38353" lon="5.81269">
        <ele>1658</ele>
        <time>2021-01-11T12:26:49Z</time>
      </trkpt>
      <trkpt lat="45.38335" lon="5.8127">
        <ele>1654</ele>
        <time>2021-01-11T12:27:09Z</time>
      </trkpt>
      <trkpt lat="45.38316" lon="5.81271">
        <ele>1645</ele>
        <time>2021-01-11T12:27:37Z</time>
      </trkpt>
      <trkpt lat="45.38301" lon="5.81285">
        <ele>1648</ele>
        <time>2021-01-11T12:27:47Z</time>
      </trkpt>
      <trkpt lat="45.38284" lon="5.81299">
        <ele>1650</ele>
        <time>2021-01-11T12:27:59Z</time>
      </trkpt>
      <trkpt lat="45.38269" lon="5.81286">
        <ele>1644</ele>
        <time>2021-01-11T12:28:21Z</time>
      </trkpt>
      <trkpt lat="45.3825" lon="5.81278">
        <ele>1644</ele>
        <time>2021-01-11T12:28:44Z</time>
      </trkpt>
      <trkpt lat="45.38237" lon="5.81261">
        <ele>1639</ele>
        <time>2021-01-11T12:29:11Z</time>
      </trkpt>
      <trkpt lat="45.38219" lon="5.81251">
        <ele>1630</ele>
        <time>2021-01-11T12:31:57Z</time>
      </trkpt>
      <trkpt lat="45.38234" lon="5.81267">
        <ele>1624</ele>
        <time>2021-01-11T12:37:54Z</time>
      </trkpt>
      <trkpt lat="45.38249" lon="5.8128">
        <ele>1629</ele>
        <time>2021-01-11T12:38:10Z</time>
      </trkpt>
      <trkpt lat="45.38267" lon="5.81287">
        <ele>1634</ele>
        <time>2021-01-11T12:38:27Z</time>
      </trkpt>
      <trkpt lat="45.38284" lon="5.81298">
        <ele>1637</ele>
        <time>2021-01-11T12:38:49Z</time>
      </trkpt>
      <trkpt lat="45.38301" lon="5.81311">
        <ele>1639</ele>
        <time>2021-01-11T12:39:07Z</time>
      </trkpt>
      <trkpt lat="45.38317" lon="5.81323">
        <ele>1640</ele>
        <time>2021-01-11T12:39:27Z</time>
      </trkpt>
      <trkpt lat="45.38332" lon="5.81339">
        <ele>1637</ele>
        <time>2021-01-11T12:39:50Z</time>
      </trkpt>
      <trkpt lat="45.3835" lon="5.8135">
        <ele>1641</ele>
        <time>2021-01-11T12:40:08Z</time>
      </trkpt>
      <trkpt lat="45.38365" lon="5.81362">
        <ele>1638</ele>
        <time>2021-01-11T12:40:27Z</time>
      </trkpt>
      <trkpt lat="45.38383" lon="5.81373">
        <ele>1640</ele>
        <time>2021-01-11T12:40:44Z</time>
      </trkpt>
      <trkpt lat="45.384" lon="5.81384">
        <ele>1642</ele>
        <time>2021-01-11T12:41:02Z</time>
      </trkpt>
      <trkpt lat="45.38417" lon="5.8139">
        <ele>1645</ele>
        <time>2021-01-11T12:41:20Z</time>
      </trkpt>
      <trkpt lat="45.38435" lon="5.814">
        <ele>1644</ele>
        <time>2021-01-11T12:41:38Z</time>
      </trkpt>
      <trkpt lat="45.3845" lon="5.81415">
        <ele>1642</ele>
        <time>2021-01-11T12:41:57Z</time>
      </trkpt>
      <trkpt lat="45.38463" lon="5.81435">
        <ele>1642</ele>
        <time>2021-01-11T12:44:41Z</time>
      </trkpt>
      <trkpt lat="45.38477" lon="5.8145">
        <ele>1641</ele>
        <time>2021-01-11T12:45:01Z</time>
      </trkpt>
      <trkpt lat="45.38485" lon="5.81473">
        <ele>1638</ele>
        <time>2021-01-11T12:45:24Z</time>
      </trkpt>
      <trkpt lat="45.38497" lon="5.81494">
        <ele>1635</ele>
        <time>2021-01-11T12:46:08Z</time>
      </trkpt>
      <trkpt lat="45.38513" lon="5.81506">
        <ele>1627</ele>
        <time>2021-01-11T12:46:55Z</time>
      </trkpt>
      <trkpt lat="45.38531" lon="5.8151">
        <ele>1622</ele>
        <time>2021-01-11T12:47:15Z</time>
      </trkpt>
      <trkpt lat="45.38547" lon="5.81523">
        <ele>1614</ele>
        <time>2021-01-11T12:47:36Z</time>
      </trkpt>
      <trkpt lat="45.38558" lon="5.81544">
        <ele>1606</ele>
        <time>2021-01-11T12:47:55Z</time>
      </trkpt>
      <trkpt lat="45.38574" lon="5.81557">
        <ele>1606</ele>
        <time>2021-01-11T12:48:10Z</time>
      </trkpt>
      <trkpt lat="45.38589" lon="5.81571">
        <ele>1600</ele>
        <time>2021-01-11T12:48:27Z</time>
      </trkpt>
      <trkpt lat="45.38605" lon="5.81586">
        <ele>1598</ele>
        <time>2021-01-11T12:48:47Z</time>
      </trkpt>
      <trkpt lat="45.38621" lon="5.81597">
        <ele>1594</ele>
        <time>2021-01-11T12:49:04Z</time>
      </trkpt>
      <trkpt lat="45.38637" lon="5.8161">
        <ele>1590</ele>
        <time>2021-01-11T12:49:24Z</time>
      </trkpt>
      <trkpt lat="45.38653" lon="5.81625">
        <ele>1584</ele>
        <time>2021-01-11T12:49:43Z</time>
      </trkpt>
      <trkpt lat="45.38671" lon="5.81634">
        <ele>1583</ele>
        <time>2021-01-11T12:50:04Z</time>
      </trkpt>
      <trkpt lat="45.38688" lon="5.81642">
        <ele>1583</ele>
        <time>2021-01-11T12:50:19Z</time>
      </trkpt>
      <trkpt lat="45.38704" lon="5.81656">
        <ele>1568</ele>
        <time>2021-01-11T12:55:49Z</time>
      </trkpt>
      <trkpt lat="45.38717" lon="5.81673">
        <ele>1566</ele>
        <time>2021-01-11T12:56:08Z</time>
      </trkpt>
      <trkpt lat="45.38732" lon="5.8169">
        <ele>1565</ele>
        <time>2021-01-11T12:56:26Z</time>
      </trkpt>
      <trkpt lat="45.3875" lon="5.81699">
        <ele>1566</ele>
        <time>2021-01-11T12:56:40Z</time>
      </trkpt>
      <trkpt lat="45.38768" lon="5.81706">
        <ele>1572</ele>
        <time>2021-01-11T12:56:54Z</time>
      </trkpt>
      <trkpt lat="45.38786" lon="5.81705">
        <ele>1571</ele>
        <time>2021-01-11T12:57:12Z</time>
      </trkpt>
      <trkpt lat="45.38804" lon="5.81704">
        <ele>1571</ele>
        <time>2021-01-11T12:57:27Z</time>
      </trkpt>
      <trkpt lat="45.38819" lon="5.8172">
        <ele>1586</ele>
        <time>2021-01-11T12:57:53Z</time>
      </trkpt>
      <trkpt lat="45.3883" lon="5.8174">
        <ele>1576</ele>
        <time>2021-01-11T12:58:15Z</time>
      </trkpt>
      <trkpt lat="45.38845" lon="5.81756">
        <ele>1573</ele>
        <time>2021-01-11T12:58:46Z</time>
      </trkpt>
      <trkpt lat="45.38854" lon="5.81779">
        <ele>1570</ele>
        <time>2021-01-11T12:59:02Z</time>
      </trkpt>
      <trkpt lat="45.38861" lon="5.81803">
        <ele>1571</ele>
        <time>2021-01-11T12:59:21Z</time>
      </trkpt>
      <trkpt lat="45.38868" lon="5.81828">
        <ele>1566</ele>
        <time>2021-01-11T12:59:38Z</time>
      </trkpt>
      <trkpt lat="45.38883" lon="5.81842">
        <ele>1569</ele>
        <time>2021-01-11T12:59:56Z</time>
      </trkpt>
      <trkpt lat="45.38896" lon="5.81861">
        <ele>1561</ele>
        <time>2021-01-11T13:00:19Z</time>
      </trkpt>
      <trkpt lat="45.38908" lon="5.81882">
        <ele>1556</ele>
        <time>2021-01-11T13:00:40Z</time>
      </trkpt>
      <trkpt lat="45.38926" lon="5.81874">
        <ele>1551</ele>
        <time>2021-01-11T13:01:01Z</time>
      </trkpt>
      <trkpt lat="45.38944" lon="5.81875">
        <ele>1548</ele>
        <time>2021-01-11T13:01:31Z</time>
      </trkpt>
      <trkpt lat="45.38963" lon="5.81871">
        <ele>1538</ele>
        <time>2021-01-11T13:01:57Z</time>
      </trkpt>
      <trkpt lat="45.38982" lon="5.81877">
        <ele>1533</ele>
        <time>2021-01-11T13:02:16Z</time>
      </trkpt>
      <trkpt lat="45.39" lon="5.81881">
        <ele>1532</ele>
        <time>2021-01-11T13:02:32Z</time>
      </trkpt>
      <trkpt lat="45.39018" lon="5.81885">
        <ele>1521</ele>
        <time>2021-01-11T13:05:42Z</time>
      </trkpt>
      <trkpt lat="45.39038" lon="5.81885">
        <ele>1516</ele>
        <time>2021-01-11T13:06:15Z</time>
      </trkpt>
      <trkpt lat="45.39054" lon="5.81897">
        <ele>1502</ele>
        <time>2021-01-11T13:08:04Z</time>
      </trkpt>
      <trkpt lat="45.39074" lon="5.81906">
        <ele>1494</ele>
        <time>2021-01-11T13:08:15Z</time>
      </trkpt>
      <trkpt lat="45.39091" lon="5.81901">
        <ele>1497</ele>
        <time>2021-01-11T13:08:25Z</time>
      </trkpt>
      <trkpt lat="45.3911" lon="5.81903">
        <ele>1504</ele>
        <time>2021-01-11T13:08:35Z</time>
      </trkpt>
      <trkpt lat="45.39129" lon="5.81907">
        <ele>1511</ele>
        <time>2021-01-11T13:08:47Z</time>
      </trkpt>
      <trkpt lat="45.39148" lon="5.81909">
        <ele>1509</ele>
        <time>2021-01-11T13:09:05Z</time>
      </trkpt>
      <trkpt lat="45.39166" lon="5.81903">
        <ele>1501</ele>
        <time>2021-01-11T13:09:23Z</time>
      </trkpt>
      <trkpt lat="45.39183" lon="5.81914">
        <ele>1491</ele>
        <time>2021-01-11T13:10:03Z</time>
      </trkpt>
      <trkpt lat="45.39201" lon="5.81918">
        <ele>1486</ele>
        <time>2021-01-11T13:10:18Z</time>
      </trkpt>
      <trkpt lat="45.39217" lon="5.81934">
        <ele>1478</ele>
        <time>2021-01-11T13:10:48Z</time>
      </trkpt>
      <trkpt lat="45.39236" lon="5.81934">
        <ele>1472</ele>
        <time>2021-01-11T13:11:11Z</time>
      </trkpt>
      <trkpt lat="45.39256" lon="5.81936">
        <ele>1463</ele>
        <time>2021-01-11T13:11:27Z</time>
      </trkpt>
      <trkpt lat="45.39275" lon="5.81934">
        <ele>1462</ele>
        <time>2021-01-11T13:11:55Z</time>
      </trkpt>
      <trkpt lat="45.39295" lon="5.81934">
        <ele>1456</ele>
        <time>2021-01-11T13:12:15Z</time>
      </trkpt>
      <trkpt lat="45.39313" lon="5.81932">
        <ele>1459</ele>
        <time>2021-01-11T13:12:38Z</time>
      </trkpt>
      <trkpt lat="45.39332" lon="5.81936">
        <ele>1458</ele>
        <time>2021-01-11T13:12:57Z</time>
      </trkpt>
      <trkpt lat="45.39351" lon="5.81929">
        <ele>1448</ele>
        <time>2021-01-11T13:13:12Z</time>
      </trkpt>
      <trkpt lat="45.39369" lon="5.81925">
        <ele>1448</ele>
        <time>2021-01-11T13:13:39Z</time>
      </trkpt>
      <trkpt lat="45.39387" lon="5.81921">
        <ele>1443</ele>
        <time>2021-01-11T13:15:33Z</time>
      </trkpt>
      <trkpt lat="45.39406" lon="5.81919">
        <ele>1431</ele>
        <time>2021-01-11T13:15:55Z</time>
      </trkpt>
      <trkpt lat="45.39424" lon="5.81919">
        <ele>1430</ele>
        <time>2021-01-11T13:16:13Z</time>
      </trkpt>
      <trkpt lat="45.39445" lon="5.8192">
        <ele>1427</ele>
        <time>2021-01-11T13:16:29Z</time>
      </trkpt>
      <trkpt lat="45.39464" lon="5.81926">
        <ele>1425</ele>
        <time>2021-01-11T13:16:44Z</time>
      </trkpt>
      <trkpt lat="45.39481" lon="5.81932">
        <ele>1421</ele>
        <time>2021-01-11T13:17:12Z</time>
      </trkpt>
      <trkpt lat="45.39498" lon="5.81945">
        <ele>1404</ele>
        <time>2021-01-11T13:18:00Z</time>
      </trkpt>
      <trkpt lat="45.39515" lon="5.81937">
        <ele>1393</ele>
        <time>2021-01-11T13:19:15Z</time>
      </trkpt>
      <trkpt lat="45.39533" lon="5.81933">
        <ele>1381</ele>
        <time>2021-01-11T13:21:32Z</time>
      </trkpt>
      <trkpt lat="45.39548" lon="5.81948">
        <ele>1380</ele>
        <time>2021-01-11T13:21:49Z</time>
      </trkpt>
      <trkpt lat="45.39555" lon="5.81972">
        <ele>1385</ele>
        <time>2021-01-11T13:22:15Z</time>
      </trkpt>
      <trkpt lat="45.39604" lon="5.81959">
        <ele>1392</ele>
        <time>2021-01-11T13:23:25Z</time>
      </trkpt>
      <trkpt lat="45.39623" lon="5.81965">
        <ele>1366</ele>
        <time>2021-01-11T13:23:42Z</time>
      </trkpt>
      <trkpt lat="45.39642" lon="5.81969">
        <ele>1353</ele>
        <time>2021-01-11T13:23:57Z</time>
      </trkpt>
      <trkpt lat="45.39659" lon="5.81975">
        <ele>1343</ele>
        <time>2021-01-11T13:24:19Z</time>
      </trkpt>
      <trkpt lat="45.39677" lon="5.81981">
        <ele>1334</ele>
        <time>2021-01-11T13:24:38Z</time>
      </trkpt>
      <trkpt lat="45.39695" lon="5.8199">
        <ele>1333</ele>
        <time>2021-01-11T13:25:13Z</time>
      </trkpt>
      <trkpt lat="45.3971" lon="5.82002">
        <ele>1325</ele>
        <time>2021-01-11T13:25:24Z</time>
      </trkpt>
      <trkpt lat="45.39727" lon="5.82014">
        <ele>1323</ele>
        <time>2021-01-11T13:25:50Z</time>
      </trkpt>
      <trkpt lat="45.39727" lon="5.8204">
        <ele>1315</ele>
        <time>2021-01-11T13:30:54Z</time>
      </trkpt>
      <trkpt lat="45.39744" lon="5.82051">
        <ele>1315</ele>
        <time>2021-01-11T13:31:13Z</time>
      </trkpt>
      <trkpt lat="45.39761" lon="5.8206">
        <ele>1304</ele>
        <time>2021-01-11T13:31:32Z</time>
      </trkpt>
      <trkpt lat="45.3978" lon="5.8207">
        <ele>1308</ele>
        <time>2021-01-11T13:31:42Z</time>
      </trkpt>
      <trkpt lat="45.39796" lon="5.82084">
        <ele>1307</ele>
        <time>2021-01-11T13:31:56Z</time>
      </trkpt>
      <trkpt lat="45.39813" lon="5.82096">
        <ele>1304</ele>
        <time>2021-01-11T13:32:11Z</time>
      </trkpt>
      <trkpt lat="45.39829" lon="5.82107">
        <ele>1310</ele>
        <time>2021-01-11T13:32:23Z</time>
      </trkpt>
      <trkpt lat="45.39845" lon="5.82122">
        <ele>1312</ele>
        <time>2021-01-11T13:32:40Z</time>
      </trkpt>
      <trkpt lat="45.39863" lon="5.82128">
        <ele>1312</ele>
        <time>2021-01-11T13:32:58Z</time>
      </trkpt>
      <trkpt lat="45.39878" lon="5.82142">
        <ele>1302</ele>
        <time>2021-01-11T13:33:20Z</time>
      </trkpt>
      <trkpt lat="45.39897" lon="5.82141">
        <ele>1301</ele>
        <time>2021-01-11T13:34:01Z</time>
      </trkpt>
      <trkpt lat="45.39913" lon="5.82153">
        <ele>1295</ele>
        <time>2021-01-11T13:34:30Z</time>
      </trkpt>
      <trkpt lat="45.39928" lon="5.82168">
        <ele>1273</ele>
        <time>2021-01-11T13:34:58Z</time>
      </trkpt>
      <trkpt lat="45.39946" lon="5.82167">
        <ele>1273</ele>
        <time>2021-01-11T13:35:12Z</time>
      </trkpt>
      <trkpt lat="45.39965" lon="5.8217">
        <ele>1273</ele>
        <time>2021-01-11T13:35:27Z</time>
      </trkpt>
      <trkpt lat="45.39981" lon="5.82184">
        <ele>1260</ele>
        <time>2021-01-11T13:35:55Z</time>
      </trkpt>
      <trkpt lat="45.39999" lon="5.82185">
        <ele>1254</ele>
        <time>2021-01-11T13:36:05Z</time>
      </trkpt>
      <trkpt lat="45.40017" lon="5.82187">
        <ele>1240</ele>
        <time>2021-01-11T13:38:30Z</time>
      </trkpt>
      <trkpt lat="45.40035" lon="5.82195">
        <ele>1235</ele>
        <time>2021-01-11T13:38:50Z</time>
      </trkpt>
      <trkpt lat="45.40052" lon="5.82205">
        <ele>1232</ele>
        <time>2021-01-11T13:39:04Z</time>
      </trkpt>
      <trkpt lat="45.40068" lon="5.82217">
        <ele>1232</ele>
        <time>2021-01-11T13:39:40Z</time>
      </trkpt>
      <trkpt lat="45.40082" lon="5.82234">
        <ele>1220</ele>
        <time>2021-01-11T13:40:12Z</time>
      </trkpt>
      <trkpt lat="45.40099" lon="5.82245">
        <ele>1217</ele>
        <time>2021-01-11T13:40:29Z</time>
      </trkpt>
      <trkpt lat="45.40115" lon="5.8226">
        <ele>1216</ele>
        <time>2021-01-11T13:40:46Z</time>
      </trkpt>
      <trkpt lat="45.4012" lon="5.82287">
        <ele>1218</ele>
        <time>2021-01-11T13:41:02Z</time>
      </trkpt>
      <trkpt lat="45.40128" lon="5.8231">
        <ele>1216</ele>
        <time>2021-01-11T13:41:22Z</time>
      </trkpt>
      <trkpt lat="45.40141" lon="5.82329">
        <ele>1217</ele>
        <time>2021-01-11T13:41:38Z</time>
      </trkpt>
      <trkpt lat="45.40155" lon="5.82346">
        <ele>1217</ele>
        <time>2021-01-11T13:41:52Z</time>
      </trkpt>
      <trkpt lat="45.40169" lon="5.82365">
        <ele>1209</ele>
        <time>2021-01-11T13:42:15Z</time>
      </trkpt>
      <trkpt lat="45.40181" lon="5.82387">
        <ele>1207</ele>
        <time>2021-01-11T13:42:33Z</time>
      </trkpt>
      <trkpt lat="45.40198" lon="5.82395">
        <ele>1192</ele>
        <time>2021-01-11T13:42:52Z</time>
      </trkpt>
      <trkpt lat="45.40215" lon="5.82407">
        <ele>1193</ele>
        <time>2021-01-11T13:43:07Z</time>
      </trkpt>
      <trkpt lat="45.40229" lon="5.82423">
        <ele>1195</ele>
        <time>2021-01-11T13:43:24Z</time>
      </trkpt>
      <trkpt lat="45.40244" lon="5.82438">
        <ele>1196</ele>
        <time>2021-01-11T13:43:46Z</time>
      </trkpt>
      <trkpt lat="45.40261" lon="5.82452">
        <ele>1192</ele>
        <time>2021-01-11T13:44:00Z</time>
      </trkpt>
      <trkpt lat="45.40269" lon="5.82477">
        <ele>1188</ele>
        <time>2021-01-11T13:44:18Z</time>
      </trkpt>
      <trkpt lat="45.40274" lon="5.82502">
        <ele>1195</ele>
        <time>2021-01-11T13:44:56Z</time>
      </trkpt>
      <trkpt lat="45.40291" lon="5.82511">
        <ele>1178</ele>
        <time>2021-01-11T13:45:14Z</time>
      </trkpt>
      <trkpt lat="45.40308" lon="5.82526">
        <ele>1186</ele>
        <time>2021-01-11T13:45:27Z</time>
      </trkpt>
      <trkpt lat="45.40322" lon="5.82544">
        <ele>1183</ele>
        <time>2021-01-11T13:45:46Z</time>
      </trkpt>
      <trkpt lat="45.40334" lon="5.82564">
        <ele>1180</ele>
        <time>2021-01-11T13:46:03Z</time>
      </trkpt>
      <trkpt lat="45.4035" lon="5.82577">
        <ele>1186</ele>
        <time>2021-01-11T13:46:23Z</time>
      </trkpt>
      <trkpt lat="45.40368" lon="5.82585">
        <ele>1185</ele>
        <time>2021-01-11T13:46:51Z</time>
      </trkpt>
      <trkpt lat="45.40387" lon="5.82588">
        <ele>1173</ele>
        <time>2021-01-11T13:47:22Z</time>
      </trkpt>
      <trkpt lat="45.40404" lon="5.82599">
        <ele>1167</ele>
        <time>2021-01-11T13:47:38Z</time>
      </trkpt>
      <trkpt lat="45.40421" lon="5.82611">
        <ele>1171</ele>
        <time>2021-01-11T13:47:49Z</time>
      </trkpt>
      <trkpt lat="45.40439" lon="5.82624">
        <ele>1167</ele>
        <time>2021-01-11T13:48:06Z</time>
      </trkpt>
      <trkpt lat="45.40452" lon="5.82641">
        <ele>1168</ele>
        <time>2021-01-11T13:48:20Z</time>
      </trkpt>
      <trkpt lat="45.40466" lon="5.82659">
        <ele>1162</ele>
        <time>2021-01-11T13:48:40Z</time>
      </trkpt>
      <trkpt lat="45.40471" lon="5.82685">
        <ele>1152</ele>
        <time>2021-01-11T13:49:10Z</time>
      </trkpt>
      <trkpt lat="45.40481" lon="5.82707">
        <ele>1146</ele>
        <time>2021-01-11T13:49:28Z</time>
      </trkpt>
      <trkpt lat="45.40495" lon="5.82726">
        <ele>1148</ele>
        <time>2021-01-11T13:49:52Z</time>
      </trkpt>
      <trkpt lat="45.40512" lon="5.82743">
        <ele>1151</ele>
        <time>2021-01-11T13:50:03Z</time>
      </trkpt>
      <trkpt lat="45.40512" lon="5.82768">
        <ele>1146</ele>
        <time>2021-01-11T13:50:27Z</time>
      </trkpt>
      <trkpt lat="45.40514" lon="5.82794">
        <ele>1122</ele>
        <time>2021-01-11T13:53:20Z</time>
      </trkpt>
      <trkpt lat="45.40524" lon="5.82821">
        <ele>1120</ele>
        <time>2021-01-11T13:53:33Z</time>
      </trkpt>
      <trkpt lat="45.40523" lon="5.82846">
        <ele>1117</ele>
        <time>2021-01-11T13:54:22Z</time>
      </trkpt>
      <trkpt lat="45.40532" lon="5.8287">
        <ele>1111</ele>
        <time>2021-01-11T13:54:41Z</time>
      </trkpt>
      <trkpt lat="45.40549" lon="5.82882">
        <ele>1100</ele>
        <time>2021-01-11T13:55:23Z</time>
      </trkpt>
      <trkpt lat="45.40569" lon="5.82878">
        <ele>1097</ele>
        <time>2021-01-11T13:55:50Z</time>
      </trkpt>
      <trkpt lat="45.40588" lon="5.82872">
        <ele>1085</ele>
        <time>2021-01-11T13:56:24Z</time>
      </trkpt>
      <trkpt lat="45.40608" lon="5.82874">
        <ele>1084</ele>
        <time>2021-01-11T13:56:50Z</time>
      </trkpt>
      <trkpt lat="45.40627" lon="5.82885">
        <ele>1085</ele>
        <time>2021-01-11T13:57:23Z</time>
      </trkpt>
      <trkpt lat="45.4064" lon="5.82903">
        <ele>1086</ele>
        <time>2021-01-11T13:57:33Z</time>
      </trkpt>
      <trkpt lat="45.40649" lon="5.82926">
        <ele>1082</ele>
        <time>2021-01-11T13:57:48Z</time>
      </trkpt>
      <trkpt lat="45.40653" lon="5.82951">
        <ele>1074</ele>
        <time>2021-01-11T13:58:15Z</time>
      </trkpt>
      <trkpt lat="45.40658" lon="5.82976">
        <ele>1068</ele>
        <time>2021-01-11T13:58:41Z</time>
      </trkpt>
      <trkpt lat="45.40666" lon="5.83">
        <ele>1061</ele>
        <time>2021-01-11T13:59:02Z</time>
      </trkpt>
      <trkpt lat="45.40677" lon="5.83021">
        <ele>1045</ele>
        <time>2021-01-11T14:01:08Z</time>
      </trkpt>
      <trkpt lat="45.40689" lon="5.83042">
        <ele>1039</ele>
        <time>2021-01-11T14:01:25Z</time>
      </trkpt>
      <trkpt lat="45.40693" lon="5.83067">
        <ele>1037</ele>
        <time>2021-01-11T14:01:50Z</time>
      </trkpt>
      <trkpt lat="45.407" lon="5.83092">
        <ele>1025</ele>
        <time>2021-01-11T14:02:24Z</time>
      </trkpt>
      <trkpt lat="45.40712" lon="5.83114">
        <ele>1020</ele>
        <time>2021-01-11T14:02:41Z</time>
      </trkpt>
      <trkpt lat="45.40723" lon="5.83137">
        <ele>1020</ele>
        <time>2021-01-11T14:02:56Z</time>
      </trkpt>
      <trkpt lat="45.40736" lon="5.83157">
        <ele>1024</ele>
        <time>2021-01-11T14:03:11Z</time>
      </trkpt>
      <trkpt lat="45.40749" lon="5.83177">
        <ele>1025</ele>
        <time>2021-01-11T14:03:30Z</time>
      </trkpt>
      <trkpt lat="45.40758" lon="5.832">
        <ele>1021</ele>
        <time>2021-01-11T14:03:49Z</time>
      </trkpt>
      <trkpt lat="45.4076" lon="5.83225">
        <ele>1024</ele>
        <time>2021-01-11T14:04:04Z</time>
      </trkpt>
      <trkpt lat="45.40773" lon="5.83246">
        <ele>1024</ele>
        <time>2021-01-11T14:04:20Z</time>
      </trkpt>
      <trkpt lat="45.40784" lon="5.83268">
        <ele>1028</ele>
        <time>2021-01-11T14:04:35Z</time>
      </trkpt>
      <trkpt lat="45.40792" lon="5.83291">
        <ele>1032</ele>
        <time>2021-01-11T14:04:52Z</time>
      </trkpt>
      <trkpt lat="45.40802" lon="5.83313">
        <ele>1027</ele>
        <time>2021-01-11T14:05:11Z</time>
      </trkpt>
      <trkpt lat="45.40813" lon="5.83334">
        <ele>1021</ele>
        <time>2021-01-11T14:05:31Z</time>
      </trkpt>
      <trkpt lat="45.4083" lon="5.83348">
        <ele>1016</ele>
        <time>2021-01-11T14:05:47Z</time>
      </trkpt>
      <trkpt lat="45.40846" lon="5.83367">
        <ele>1015</ele>
        <time>2021-01-11T14:06:02Z</time>
      </trkpt>
      <trkpt lat="45.40855" lon="5.83391">
        <ele>1009</ele>
        <time>2021-01-11T14:06:21Z</time>
      </trkpt>
      <trkpt lat="45.40866" lon="5.83412">
        <ele>1008</ele>
        <time>2021-01-11T14:06:39Z</time>
      </trkpt>
      <trkpt lat="45.40876" lon="5.83434">
        <ele>1009</ele>
        <time>2021-01-11T14:06:57Z</time>
      </trkpt>
      <trkpt lat="45.4089" lon="5.83452">
        <ele>1002</ele>
        <time>2021-01-11T14:07:17Z</time>
      </trkpt>
      <trkpt lat="45.4091" lon="5.83454">
        <ele>994</ele>
        <time>2021-01-11T14:07:56Z</time>
      </trkpt>
      <trkpt lat="45.40929" lon="5.83459">
        <ele>996</ele>
        <time>2021-01-11T14:08:08Z</time>
      </trkpt>
      <trkpt lat="45.40947" lon="5.83466">
        <ele>998</ele>
        <time>2021-01-11T14:10:01Z</time>
      </trkpt>
      <trkpt lat="45.40965" lon="5.83472">
        <ele>998</ele>
        <time>2021-01-11T14:10:15Z</time>
      </trkpt>
      <trkpt lat="45.40983" lon="5.8347">
        <ele>992</ele>
        <time>2021-01-11T14:10:39Z</time>
      </trkpt>
      <trkpt lat="45.41001" lon="5.83467">
        <ele>995</ele>
        <time>2021-01-11T14:10:57Z</time>
      </trkpt>
      <trkpt lat="45.4102" lon="5.83461">
        <ele>992</ele>
        <time>2021-01-11T14:11:15Z</time>
      </trkpt>
      <trkpt lat="45.41039" lon="5.83458">
        <ele>994</ele>
        <time>2021-01-11T14:11:31Z</time>
      </trkpt>
      <trkpt lat="45.41057" lon="5.83456">
        <ele>988</ele>
        <time>2021-01-11T14:11:54Z</time>
      </trkpt>
      <trkpt lat="45.41063" lon="5.83481">
        <ele>982</ele>
        <time>2021-01-11T14:12:30Z</time>
      </trkpt>
      <trkpt lat="45.41068" lon="5.83506">
        <ele>978</ele>
        <time>2021-01-11T14:12:47Z</time>
      </trkpt>
      <trkpt lat="45.41075" lon="5.8353">
        <ele>975</ele>
        <time>2021-01-11T14:13:03Z</time>
      </trkpt>
      <trkpt lat="45.4108" lon="5.83555">
        <ele>972</ele>
        <time>2021-01-11T14:13:20Z</time>
      </trkpt>
      <trkpt lat="45.41084" lon="5.83581">
        <ele>970</ele>
        <time>2021-01-11T14:13:37Z</time>
      </trkpt>
      <trkpt lat="45.41091" lon="5.83606">
        <ele>969</ele>
        <time>2021-01-11T14:13:57Z</time>
      </trkpt>
      <trkpt lat="45.41108" lon="5.83615">
        <ele>964</ele>
        <time>2021-01-11T14:14:22Z</time>
      </trkpt>
      <trkpt lat="45.41127" lon="5.83616">
        <ele>968</ele>
        <time>2021-01-11T14:14:39Z</time>
      </trkpt>
      <trkpt lat="45.41147" lon="5.83617">
        <ele>966</ele>
        <time>2021-01-11T14:14:57Z</time>
      </trkpt>
      <trkpt lat="45.41165" lon="5.83618">
        <ele>958</ele>
        <time>2021-01-11T14:15:12Z</time>
      </trkpt>
      <trkpt lat="45.41183" lon="5.8361">
        <ele>957</ele>
        <time>2021-01-11T14:15:30Z</time>
      </trkpt>
      <trkpt lat="45.412" lon="5.83602">
        <ele>960</ele>
        <time>2021-01-11T14:15:48Z</time>
      </trkpt>
      <trkpt lat="45.41216" lon="5.83613">
        <ele>957</ele>
        <time>2021-01-11T14:16:05Z</time>
      </trkpt>
      <trkpt lat="45.41228" lon="5.83633">
        <ele>950</ele>
        <time>2021-01-11T14:16:25Z</time>
      </trkpt>
      <trkpt lat="45.41242" lon="5.83651">
        <ele>952</ele>
        <time>2021-01-11T14:16:44Z</time>
      </trkpt>
      <trkpt lat="45.41254" lon="5.83671">
        <ele>947</ele>
        <time>2021-01-11T14:17:05Z</time>
      </trkpt>
      <trkpt lat="45.41268" lon="5.83691">
        <ele>945</ele>
        <time>2021-01-11T14:17:23Z</time>
      </trkpt>
      <trkpt lat="45.41286" lon="5.83704">
        <ele>942</ele>
        <time>2021-01-11T14:17:40Z</time>
      </trkpt>
    </trkseg>
  </trk>
</gpx>